EGHI/SOU METAR and TAF weather

Enter ICAO airport designator
Station Type Date Time Source
EGHI METAR 2019/12/12 21:50 UTC NOAA

EGHI 122150Z 20008KT 9999 -RA FEW026 09/07 Q0975


Station Type Date Time Source
EGHI Decoded METAR 2019/12/12 21:50 UTC NOAA

Southampton / Weather Centre, United Kingdom (EGHI) 50-54N 001-24W 0M
Dec 12, 2019 - 04:50 PM EST / 2019.12.12 2150 UTC
Wind: from the SSW (200 degrees) at 9 MPH (8 KT):0
Visibility: greater than 7 mile(s):0
Sky conditions: mostly clear
Weather: light rain
Temperature: 48 F (9 C)
Dew Point: 44 F (7 C)
Relative Humidity: 87%
Pressure (altimeter): 28.79 in. Hg (0975 hPa)
ob: EGHI 122150Z 20008KT 9999 -RA FEW026 09/07 Q0975
cycle: 22

Station Type Date Time Source
EGHI TAF 2016/03/02 12:00 UTC NOAA

TAF EGHI 021104Z 0212/0221 28015G25KT 9999 SCT020
TEMPO 0212/0221 29020G35KT PROB30
TEMPO 0212/0213 4000 SHRA BKN012CB
TEMPO 0218/0221 BKN014

Example: see airport list